Terminal Aerodrome Forecast
Issued by NWS Sterling, VA

Current Version | Previous Version | Graphics & Text | Print | Product List | Glossary On
Versions: 1 2 3 4 5 6 7 8 9 10 11 12 13 14 15 16 17 18 19 20 21 22 23 24 25 26 27
000
FTUS41 KLWX 262038 AAA
TAFDCA
TAF AMD
KDCA 262038Z 2621/2718 34008KT P6SM SCT060 BKN150
     FM270000 30007KT P6SM VCTS SCT060CB BKN140
     FM270300 20006KT P6SM BKN060
     FM270600 26004KT P6SM BKN060
     FM270800 34004KT P6SM BKN090=

USA.gov is the U.S. government's official web portal to all federal, state and local government web resources and services.